Time;durP1;ratioP1;P1;durP2;ratioP2;P2;SDS_P1;SDS_P2;PMS_P1;PMS_P2;Temp;Humidity;BMP_temperature;BMP_pressure;BME280_temperature;BME280_humidity;BME280_pressure;Samples;Min_cycle;Max_cycle;Signal;HPM_P1;HPM_P2
2021/06/08 00:01:43;;;;;;;4.95;4.00;;;;;;;;;;4896521;29;20395;-42
2021/06/08 00:04:10;;;;;;;8.02;4.38;;;;;;;;;;4896707;29;20048;-42
2021/06/08 00:06:37;;;;;;;5.55;4.43;;;;;;;;;;4889850;29;20071;-42
2021/06/08 00:09:04;;;;;;;5.82;4.70;;;;;;;;;;4889373;29;20113;-44
2021/06/08 00:11:31;;;;;;;5.55;5.05;;;;;;;;;;4892758;29;20056;-42
2021/06/08 00:13:58;;;;;;;5.10;4.60;;;;;;;;;;4893433;29;20105;-42
2021/06/08 00:16:24;;;;;;;7.03;4.80;;;;;;;;;;4879507;29;20105;-42
2021/06/08 00:18:51;;;;;;;5.78;5.18;;;;;;;;;;4878683;29;20483;-41
2021/06/08 00:21:18;;;;;;;5.95;5.35;;;;;;;;;;4879637;29;20060;-42
2021/06/08 00:23:45;;;;;;;6.72;4.70;;;;;;;;;;4887048;29;20049;-41
2021/06/08 00:26:12;;;;;;;5.97;5.38;;;;;;;;;;4892765;29;20073;-42
2021/06/08 00:28:38;;;;;;;6.05;5.43;;;;;;;;;;4879265;29;20049;-43
2021/06/08 00:31:05;;;;;;;5.80;5.25;;;;;;;;;;4879664;29;20364;-44
2021/06/08 00:33:32;;;;;;;6.47;5.40;;;;;;;;;;4881954;29;20059;-41
2021/06/08 00:36:02;;;;;;;7.35;5.40;;;;;;;;;;4897962;29;20123;-42
2021/06/08 00:38:29;;;;;;;6.72;6.00;;;;;;;;;;4898031;29;20053;-44
2021/06/08 00:40:59;;;;;;;6.80;5.72;;;;;;;;;;4898047;29;20156;-43
2021/06/08 00:43:26;;;;;;;9.80;6.15;;;;;;;;;;4897200;29;20056;-43
2021/06/08 00:45:53;;;;;;;7.05;6.35;;;;;;;;;;4898067;29;20789;-41
2021/06/08 00:48:21;;;;;;;5.90;5.30;;;;;;;;;;4885003;29;20053;-41
2021/06/08 00:50:48;;;;;;;6.78;5.78;;;;;;;;;;4879201;29;20060;-41
2021/06/08 00:53:15;;;;;;;6.55;5.85;;;;;;;;;;4879269;29;20487;-40
2021/06/08 00:55:42;;;;;;;7.30;6.15;;;;;;;;;;4878791;29;20065;-42
2021/06/08 00:58:09;;;;;;;5.97;5.38;;;;;;;;;;4896143;29;20079;-41
2021/06/08 01:00:36;;;;;;;7.57;5.75;;;;;;;;;;4896593;29;20550;-41
2021/06/08 01:03:03;;;;;;;8.45;6.03;;;;;;;;;;4897725;29;20131;-42
2021/06/08 01:05:30;;;;;;;6.93;6.20;;;;;;;;;;4890626;29;20060;-42
2021/06/08 01:07:57;;;;;;;10.15;6.65;;;;;;;;;;4878518;29;20132;-41
2021/06/08 01:10:24;;;;;;;8.25;7.32;;;;;;;;;;4878847;29;20053;-42
2021/06/08 01:13:01;;;;;;;8.35;7.57;;;;;;;;;;4879000;29;20045;-42
2021/06/08 01:15:28;;;;;;;10.00;6.65;;;;;;;;;;4882922;29;20053;-42
2021/06/08 01:17:55;;;;;;;7.07;6.18;;;;;;;;;;4877978;29;20060;-42
2021/06/08 01:20:22;;;;;;;7.18;5.97;;;;;;;;;;4878707;29;20128;-42
2021/06/08 01:22:49;;;;;;;6.32;5.70;;;;;;;;;;4878428;29;20053;-43
2021/06/08 01:25:16;;;;;;;9.35;6.93;;;;;;;;;;4878380;29;20144;-42
2021/06/08 01:27:43;;;;;;;10.20;7.28;;;;;;;;;;4883735;29;20061;-43
2021/06/08 01:30:10;;;;;;;8.02;7.22;;;;;;;;;;4878864;29;20053;-43
2021/06/08 01:32:38;;;;;;;8.70;7.47;;;;;;;;;;4893985;29;20116;-43
2021/06/08 01:35:06;;;;;;;9.10;7.63;;;;;;;;;;4897069;29;20120;-41
2021/06/08 01:37:33;;;;;;;9.20;7.97;;;;;;;;;;4876312;29;20188;-43
2021/06/08 01:40:00;;;;;;;9.95;7.43;;;;;;;;;;4878114;29;20124;-42
2021/06/08 01:42:28;;;;;;;9.20;8.30;;;;;;;;;;4889995;29;20653;-42
2021/06/08 01:44:55;;;;;;;10.43;8.10;;;;;;;;;;4901441;29;20069;-44
2021/06/08 01:47:22;;;;;;;9.05;8.15;;;;;;;;;;4891289;29;20538;-42
2021/06/08 01:49:48;;;;;;;8.48;7.68;;;;;;;;;;4895247;29;20053;-42
2021/06/08 01:52:22;;;;;;;8.95;7.40;;;;;;;;;;4897197;29;20089;-43
2021/06/08 01:54:57;;;;;;;7.30;6.28;;;;;;;;;;4896687;29;20048;-43
2021/06/08 01:57:44;;;;;;;7.78;6.85;;;;;;;;;;4877941;29;20427;-42
2021/06/08 02:00:34;;;;;;;8.80;6.90;;;;;;;;;;4877666;29;20077;-43
2021/06/08 02:03:04;;;;;;;7.20;6.00;;;;;;;;;;4877936;29;20121;-42
2021/06/08 02:05:38;;;;;;;7.45;6.15;;;;;;;;;;4884835;29;20061;-43
2021/06/08 02:08:23;;;;;;;7.43;6.35;;;;;;;;;;4896695;29;20053;-43
2021/06/08 02:10:53;;;;;;;6.78;6.07;;;;;;;;;;4893120;29;20104;-42
2021/06/08 02:13:43;;;;;;;7.35;6.32;;;;;;;;;;4889618;29;20049;-42
2021/06/08 02:16:13;;;;;;;7.30;6.50;;;;;;;;;;4877800;29;20083;-43
2021/06/08 02:18:40;;;;;;;7.72;6.93;;;;;;;;;;4891154;29;20056;-43
2021/06/08 02:21:08;;;;;;;11.13;6.97;;;;;;;;;;4894977;29;20499;-44
2021/06/08 02:23:35;;;;;;;7.57;6.75;;;;;;;;;;4896032;29;20086;-42
2021/06/08 02:26:03;;;;;;;7.13;6.43;;;;;;;;;;4885360;29;20531;-43
2021/06/08 02:28:31;;;;;;;9.13;6.72;;;;;;;;;;4877211;29;20388;-42
2021/06/08 02:31:02;;;;;;;7.63;5.68;;;;;;;;;;4877667;29;20049;-42
2021/06/08 02:33:30;;;;;;;7.80;6.20;;;;;;;;;;4881554;29;20052;-43
2021/06/08 02:35:58;;;;;;;7.03;5.75;;;;;;;;;;4885180;29;20448;-43
2021/06/08 02:38:25;;;;;;;7.10;6.15;;;;;;;;;;4876884;29;20049;-43
2021/06/08 02:40:53;;;;;;;7.00;6.20;;;;;;;;;;4895180;29;20064;-43
2021/06/08 02:43:22;;;;;;;6.85;5.35;;;;;;;;;;4893955;29;20049;-45
2021/06/08 02:45:50;;;;;;;7.75;6.40;;;;;;;;;;4895785;29;20120;-43
2021/06/08 02:48:17;;;;;;;6.93;6.22;;;;;;;;;;4894319;29;20080;-43
2021/06/08 02:50:47;;;;;;;6.72;5.97;;;;;;;;;;4895880;29;20558;-42
2021/06/08 02:53:15;;;;;;;6.38;5.47;;;;;;;;;;4895722;29;20052;-42
2021/06/08 02:55:42;;;;;;;6.63;5.57;;;;;;;;;;4895521;29;20128;-43
2021/06/08 02:58:10;;;;;;;7.05;5.70;;;;;;;;;;4878302;29;20057;-43
2021/06/08 03:00:37;;;;;;;7.70;5.68;;;;;;;;;;4877031;29;20053;-43
2021/06/08 03:03:07;;;;;;;7.45;5.60;;;;;;;;;;4877173;29;20101;-43
2021/06/08 03:05:37;;;;;;;6.63;5.65;;;;;;;;;;4876915;29;20093;-43
2021/06/08 03:08:09;;;;;;;5.95;5.35;;;;;;;;;;4877243;29;20071;-43
2021/06/08 03:10:37;;;;;;;6.63;5.28;;;;;;;;;;4891612;29;20144;-43
2021/06/08 03:13:07;;;;;;;7.72;5.90;;;;;;;;;;4878350;29;20052;-43
2021/06/08 03:15:36;;;;;;;6.30;5.60;;;;;;;;;;4877001;29;20052;-43
2021/06/08 03:18:04;;;;;;;6.20;5.60;;;;;;;;;;4877100;29;20598;-41
2021/06/08 03:20:38;;;;;;;6.40;5.53;;;;;;;;;;4876862;29;20061;-43
2021/06/08 03:23:07;;;;;;;6.45;5.38;;;;;;;;;;4876747;29;20117;-42
2021/06/08 03:25:35;;;;;;;6.65;5.22;;;;;;;;;;4886060;29;20349;-42
2021/06/08 03:28:02;;;;;;;7.43;5.22;;;;;;;;;;4895585;29;20053;-42
2021/06/08 03:30:31;;;;;;;6.75;6.00;;;;;;;;;;4895892;29;20057;-44
2021/06/08 03:32:58;;;;;;;6.47;5.80;;;;;;;;;;4892984;29;20156;-42
2021/06/08 03:35:26;;;;;;;7.47;5.40;;;;;;;;;;4876723;29;20061;-43
2021/06/08 03:37:54;;;;;;;7.10;5.60;;;;;;;;;;4876612;29;20061;-44
2021/06/08 03:40:21;;;;;;;8.00;6.47;;;;;;;;;;4882846;29;20067;-42
2021/06/08 03:42:48;;;;;;;8.10;6.10;;;;;;;;;;4894139;29;20056;-42
2021/06/08 03:45:16;;;;;;;6.43;5.65;;;;;;;;;;4895443;29;20105;-44
2021/06/08 03:47:44;;;;;;;6.93;6.00;;;;;;;;;;4887631;29;20515;-43
2021/06/08 03:50:14;;;;;;;5.60;5.00;;;;;;;;;;4892234;29;20080;-45
2021/06/08 03:52:50;;;;;;;7.47;5.72;;;;;;;;;;4895776;29;20120;-45
2021/06/08 03:55:24;;;;;;;8.23;6.25;;;;;;;;;;4889606;29;20057;-44
2021/06/08 03:57:55;;;;;;;8.63;6.32;;;;;;;;;;4877155;29;20116;-44
2021/06/08 04:00:24;;;;;;;6.55;5.75;;;;;;;;;;4876926;29;20511;-43
2021/06/08 04:02:51;;;;;;;7.47;6.22;;;;;;;;;;4875705;29;20049;-43
2021/06/08 04:05:18;;;;;;;6.40;5.72;;;;;;;;;;4889831;29;20136;-44
2021/06/08 04:07:46;;;;;;;7.32;6.53;;;;;;;;;;4893816;29;20519;-44
2021/06/08 04:10:16;;;;;;;7.32;6.20;;;;;;;;;;4896174;29;20055;-44
2021/06/08 04:12:43;;;;;;;6.43;5.22;;;;;;;;;;4897627;29;20056;-43
2021/06/08 04:15:10;;;;;;;7.28;5.85;;;;;;;;;;4899011;29;20068;-43
2021/06/08 04:17:37;;;;;;;7.05;6.05;;;;;;;;;;4892963;29;20128;-45
2021/06/08 04:20:05;;;;;;;6.72;5.90;;;;;;;;;;4880163;29;20057;-45
2021/06/08 04:22:34;;;;;;;6.93;5.65;;;;;;;;;;4895438;29;20064;-43
2021/06/08 04:25:02;;;;;;;7.82;5.70;;;;;;;;;;4898590;29;20135;-44
2021/06/08 04:27:29;;;;;;;6.32;5.70;;;;;;;;;;4888604;29;20057;-44
2021/06/08 04:29:57;;;;;;;7.72;6.55;;;;;;;;;;4879629;29;20143;-44
2021/06/08 04:32:24;;;;;;;7.63;6.40;;;;;;;;;;4879801;29;20044;-43
2021/06/08 04:34:52;;;;;;;7.28;6.53;;;;;;;;;;4883283;29;20457;-44
2021/06/08 04:37:19;;;;;;;8.10;6.63;;;;;;;;;;4879859;29;20069;-43
2021/06/08 04:39:46;;;;;;;7.47;6.68;;;;;;;;;;4894500;29;20431;-42
2021/06/08 04:42:14;;;;;;;9.65;6.55;;;;;;;;;;4903529;29;20064;-45
2021/06/08 04:44:42;;;;;;;7.10;6.40;;;;;;;;;;4887043;29;20460;-43
2021/06/08 04:47:09;;;;;;;8.43;7.35;;;;;;;;;;4893054;29;20136;-43
2021/06/08 04:49:36;;;;;;;7.93;6.82;;;;;;;;;;4910050;29;20147;-45
2021/06/08 04:52:04;;;;;;;10.25;7.20;;;;;;;;;;4915673;29;20390;-44
2021/06/08 04:54:31;;;;;;;8.35;7.18;;;;;;;;;;4916866;29;20060;-42
2021/06/08 04:56:58;;;;;;;10.82;7.55;;;;;;;;;;4897153;29;20049;-45
2021/06/08 04:59:31;;;;;;;7.55;6.75;;;;;;;;;;4898228;29;20052;-43
2021/06/08 05:01:57;;;;;;;;;;;;;;;;;;4898450;29;20112;-43
2021/06/08 05:04:27;;;;;;;9.20;6.38;;;;;;;;;;4891928;29;19931;-42
2021/06/08 05:06:56;;;;;;;8.38;7.03;;;;;;;;;;4893819;29;20116;-42
2021/06/08 05:09:27;;;;;;;8.85;7.03;;;;;;;;;;4879353;29;20049;-42
2021/06/08 05:11:55;;;;;;;8.05;6.43;;;;;;;;;;4879995;29;20345;-42
2021/06/08 05:14:26;;;;;;;7.38;6.63;;;;;;;;;;4879070;29;20117;-43
2021/06/08 05:16:54;;;;;;;8.20;7.10;;;;;;;;;;4879016;29;20527;-42
2021/06/08 05:19:22;;;;;;;9.50;6.60;;;;;;;;;;4879102;29;20082;-42
2021/06/08 05:21:49;;;;;;;9.80;7.60;;;;;;;;;;4895848;29;20463;-41
2021/06/08 05:24:16;;;;;;;8.18;7.35;;;;;;;;;;4927639;29;20085;-42
2021/06/08 05:26:47;;;;;;;7.72;6.85;;;;;;;;;;4891138;29;20061;-43
2021/06/08 05:29:21;;;;;;;9.18;7.10;;;;;;;;;;4895606;29;20539;-43
2021/06/08 05:31:48;;;;;;;7.68;6.88;;;;;;;;;;4897823;29;20055;-43
2021/06/08 05:34:18;;;;;;;9.10;8.15;;;;;;;;;;4897983;29;20052;-43
2021/06/08 05:36:45;;;;;;;11.00;8.35;;;;;;;;;;4879267;29;20053;-41
2021/06/08 05:39:12;;;;;;;9.82;7.72;;;;;;;;;;4878740;29;20049;-42
2021/06/08 05:41:39;;;;;;;8.65;7.40;;;;;;;;;;4894732;29;20486;-43
2021/06/08 05:44:09;;;;;;;9.40;7.75;;;;;;;;;;4878766;29;20052;-42
2021/06/08 05:46:37;;;;;;;11.65;7.68;;;;;;;;;;4894915;29;20055;-42
2021/06/08 05:49:05;;;;;;;9.90;8.90;;;;;;;;;;4885351;29;20112;-42
2021/06/08 05:51:33;;;;;;;9.80;8.30;;;;;;;;;;4897073;29;20108;-42
2021/06/08 05:54:00;;;;;;;12.27;9.02;;;;;;;;;;4896932;29;20066;-43
2021/06/08 05:56:31;;;;;;;9.57;8.57;;;;;;;;;;4890198;29;20487;-43
2021/06/08 05:58:58;;;;;;;11.55;9.20;;;;;;;;;;4897311;29;20061;-44
2021/06/08 06:01:26;;;;;;;10.75;8.68;;;;;;;;;;4897309;29;20048;-42
2021/06/08 06:03:54;;;;;;;10.65;9.32;;;;;;;;;;4888479;29;20419;-42
2021/06/08 06:06:20;;;;;;;10.32;9.23;;;;;;;;;;4884005;29;20064;-43
2021/06/08 06:08:47;;;;;;;10.48;9.23;;;;;;;;;;4893382;29;20530;-43
2021/06/08 06:11:15;;;;;;;13.43;11.40;;;;;;;;;;4897296;29;20580;-42
2021/06/08 06:13:49;;;;;;;13.00;11.32;;;;;;;;;;4884484;29;20104;-42
2021/06/08 06:16:17;;;;;;;14.40;12.38;;;;;;;;;;4897250;29;20060;-44
2021/06/08 06:18:43;;;;;;;14.13;10.27;;;;;;;;;;4887575;29;20129;-42
2021/06/08 06:21:11;;;;;;;12.25;10.27;;;;;;;;;;4899094;29;20056;-42
2021/06/08 06:23:39;;;;;;;12.07;10.77;;;;;;;;;;4898892;29;20148;-44
2021/06/08 06:26:05;;;;;;;11.43;10.07;;;;;;;;;;4899817;29;20159;-46
2021/06/08 06:28:33;;;;;;;12.40;10.25;;;;;;;;;;4896179;29;20059;-41
2021/06/08 06:31:05;;;;;;;11.93;10.75;;;;;;;;;;4899176;29;20135;-40
2021/06/08 06:33:32;;;;;;;14.85;10.98;;;;;;;;;;4885420;29;20112;-41
2021/06/08 06:35:59;;;;;;;11.27;10.15;;;;;;;;;;4884035;29;20191;-43
2021/06/08 06:38:27;;;;;;;11.40;10.20;;;;;;;;;;4895485;29;20068;-42
2021/06/08 06:40:54;;;;;;;10.90;9.80;;;;;;;;;;4899987;29;20052;-41
2021/06/08 06:43:23;;;;;;;14.40;10.80;;;;;;;;;;4897946;29;20214;-42
2021/06/08 06:45:52;;;;;;;11.57;10.38;;;;;;;;;;4878206;29;20385;-42
2021/06/08 06:48:19;;;;;;;15.13;13.52;;;;;;;;;;4877489;29;20044;-41
2021/06/08 06:50:46;;;;;;;14.48;12.73;;;;;;;;;;4877935;29;20392;-42
2021/06/08 06:53:17;;;;;;;13.55;11.82;;;;;;;;;;4877942;29;20097;-42
2021/06/08 06:55:48;;;;;;;12.57;11.25;;;;;;;;;;4883361;29;20061;-42
2021/06/08 06:58:18;;;;;;;13.10;11.70;;;;;;;;;;4890445;29;20523;-42
2021/06/08 07:00:46;;;;;;;12.45;10.98;;;;;;;;;;4881563;29;20407;-42
2021/06/08 07:03:14;;;;;;;12.35;11.10;;;;;;;;;;4896540;29;20056;-42
2021/06/08 07:05:43;;;;;;;13.82;11.48;;;;;;;;;;4895115;29;20113;-43
2021/06/08 07:08:10;;;;;;;18.92;12.63;;;;;;;;;;4896456;29;20479;-42
2021/06/08 07:10:38;;;;;;;13.93;12.48;;;;;;;;;;4896001;29;20052;-42
2021/06/08 07:13:06;;;;;;;16.05;13.50;;;;;;;;;;4897195;29;20236;-41
2021/06/08 07:15:34;;;;;;;16.23;13.70;;;;;;;;;;4886585;29;20072;-40
2021/06/08 07:18:03;;;;;;;16.33;14.55;;;;;;;;;;4887390;29;20064;-41
2021/06/08 07:20:30;;;;;;;17.77;15.88;;;;;;;;;;4880250;29;20144;-41
2021/06/08 07:22:57;;;;;;;16.48;14.88;;;;;;;;;;4881199;29;20091;-41
2021/06/08 07:25:26;;;;;;;16.75;15.07;;;;;;;;;;4897339;29;20084;-40
2021/06/08 07:27:53;;;;;;;17.40;15.05;;;;;;;;;;4890971;29;20060;-40
2021/06/08 07:30:21;;;;;;;16.80;14.23;;;;;;;;;;4897829;29;20096;-41
2021/06/08 07:33:07;;;;;;;15.77;14.13;;;;;;;;;;4897738;29;20456;-44
2021/06/08 07:35:34;;;;;;;15.68;14.07;;;;;;;;;;4894827;29;20053;-45
2021/06/08 07:38:07;;;;;;;16.35;13.98;;;;;;;;;;4894411;29;20057;-42
2021/06/08 07:40:33;;;;;;;;;;;;;;;;;;4890294;29;20052;-42
2021/06/08 07:43:03;;;;;;;15.82;14.15;;;;;;;;;;4892133;29;20401;-43
2021/06/08 07:45:51;;;;;;;17.45;15.65;;;;;;;;;;4895272;29;20053;-42
2021/06/08 07:48:28;;;;;;;16.00;14.00;;;;;;;;;;4895286;29;20092;-42
2021/06/08 07:50:56;;;;;;;18.33;14.93;;;;;;;;;;4898994;29;20108;-42
2021/06/08 07:53:24;;;;;;;20.45;16.35;;;;;;;;;;4898991;29;20081;-43
2021/06/08 07:55:54;;;;;;;16.60;14.90;;;;;;;;;;4899001;29;20059;-41
2021/06/08 07:58:25;;;;;;;18.02;16.10;;;;;;;;;;4899270;29;20053;-42
2021/06/08 08:00:53;;;;;;;18.20;16.23;;;;;;;;;;4896987;29;20401;-42
2021/06/08 08:03:28;;;;;;;17.95;16.17;;;;;;;;;;4897641;29;20545;-44
2021/06/08 08:06:00;;;;;;;17.98;15.38;;;;;;;;;;4897155;29;20059;-42
2021/06/08 08:08:28;;;;;;;19.42;17.27;;;;;;;;;;4888799;29;20056;-45
2021/06/08 08:10:55;;;;;;;14.88;13.38;;;;;;;;;;4896517;29;20128;-47
2021/06/08 08:13:23;;;;;;;20.48;16.00;;;;;;;;;;4890350;29;20533;-43
2021/06/08 08:16:06;;;;;;;19.13;16.90;;;;;;;;;;4895044;29;20132;-42
2021/06/08 08:18:34;;;;;;;18.02;16.13;;;;;;;;;;4892370;29;20052;-42
2021/06/08 08:21:02;;;;;;;17.70;15.90;;;;;;;;;;4896597;29;20060;-41
2021/06/08 08:23:29;;;;;;;23.55;16.98;;;;;;;;;;4894194;29;20492;-42
2021/06/08 08:25:57;;;;;;;17.65;15.95;;;;;;;;;;4892423;29;20053;-43
2021/06/08 08:28:25;;;;;;;18.08;16.13;;;;;;;;;;4891819;29;20427;-41
2021/06/08 08:30:53;;;;;;;18.60;16.73;;;;;;;;;;4893422;29;20087;-43
2021/06/08 08:33:24;;;;;;;19.70;17.70;;;;;;;;;;4894022;29;20419;-45
2021/06/08 08:35:51;;;;;;;18.27;16.48;;;;;;;;;;4892127;29;20491;-41
2021/06/08 08:38:19;;;;;;;19.67;17.58;;;;;;;;;;4891655;29;20645;-42
2021/06/08 08:40:46;;;;;;;17.63;15.80;;;;;;;;;;4892646;29;20506;-44
2021/06/08 08:43:25;;;;;;;17.67;15.95;;;;;;;;;;4888983;29;20057;-48
2021/06/08 08:45:52;;;;;;;16.73;14.98;;;;;;;;;;4896409;29;20048;-41
2021/06/08 08:48:20;;;;;;;19.45;17.08;;;;;;;;;;4893476;29;20060;-44
2021/06/08 08:50:48;;;;;;;17.55;15.85;;;;;;;;;;4893105;29;20101;-45
2021/06/08 08:53:16;;;;;;;18.27;16.48;;;;;;;;;;4896802;29;20086;-43
2021/06/08 08:55:45;;;;;;;17.55;15.75;;;;;;;;;;4895376;29;20048;-43
2021/06/08 08:58:13;;;;;;;17.48;15.77;;;;;;;;;;4894540;29;20465;-42
2021/06/08 09:00:42;;;;;;;17.40;15.75;;;;;;;;;;4896907;29;20120;-42
2021/06/08 09:03:11;;;;;;;18.30;16.50;;;;;;;;;;4896888;29;20037;-42
2021/06/08 09:05:38;;;;;;;17.63;15.90;;;;;;;;;;4897080;29;20048;-42
2021/06/08 09:08:06;;;;;;;18.50;16.67;;;;;;;;;;4892161;29;20111;-41
2021/06/08 09:10:33;;;;;;;19.60;16.13;;;;;;;;;;4896222;29;20052;-44
2021/06/08 09:13:00;;;;;;;17.35;15.55;;;;;;;;;;4892880;29;20048;-43
2021/06/08 09:15:27;;;;;;;17.95;16.25;;;;;;;;;;4891575;29;20060;-43
2021/06/08 09:17:55;;;;;;;16.83;15.05;;;;;;;;;;4891588;29;20052;-43
2021/06/08 09:20:22;;;;;;;19.77;17.85;;;;;;;;;;4900233;29;20079;-44
2021/06/08 09:22:49;;;;;;;18.08;16.08;;;;;;;;;;4896546;29;20052;-42
2021/06/08 09:25:38;;;;;;;18.42;16.15;;;;;;;;;;4897368;29;20128;-43
2021/06/08 09:28:22;;;;;;;18.25;16.45;;;;;;;;;;4894416;29;20574;-43
2021/06/08 09:31:08;;;;;;;16.63;15.02;;;;;;;;;;4895681;29;20049;-44
2021/06/08 09:33:39;;;;;;;19.08;17.08;;;;;;;;;;4891291;29;20045;-47
2021/06/08 09:36:14;;;;;;;16.45;14.75;;;;;;;;;;4895119;29;20427;-46
2021/06/08 09:38:42;;;;;;;17.75;16.05;;;;;;;;;;4894488;29;20518;-45
2021/06/08 09:41:15;;;;;;;17.83;16.00;;;;;;;;;;4895965;29;20455;-46
2021/06/08 09:43:42;;;;;;;;;;;;;;;;;;4894339;29;20522;-42
2021/06/08 09:46:09;;;;;;;19.08;17.08;;;;;;;;;;4895771;29;20536;-44
2021/06/08 09:48:48;;;;;;;17.90;16.02;;;;;;;;;;4891478;29;20056;-47
2021/06/08 09:51:15;;;;;;;16.48;14.02;;;;;;;;;;4893615;29;20120;-49
2021/06/08 09:53:43;;;;;;;18.75;16.85;;;;;;;;;;4892314;29;20127;-43
2021/06/08 09:56:10;;;;;;;20.77;16.55;;;;;;;;;;4890352;29;20083;-46
2021/06/08 09:58:42;;;;;;;17.38;15.63;;;;;;;;;;4895187;29;20069;-44
2021/06/08 10:01:09;;;;;;;20.08;17.98;;;;;;;;;;4895299;29;20059;-44
2021/06/08 10:03:44;;;;;;;19.25;17.17;;;;;;;;;;4891978;29;20132;-46
2021/06/08 10:06:21;;;;;;;19.05;17.15;;;;;;;;;;4895734;29;20498;-47
2021/06/08 10:08:50;;;;;;;18.83;16.67;;;;;;;;;;4893081;29;20562;-48
2021/06/08 10:11:23;;;;;;;21.92;19.92;;;;;;;;;;4895485;29;20155;-45
2021/06/08 10:13:52;;;;;;;20.50;17.92;;;;;;;;;;4892852;29;20041;-46
2021/06/08 10:16:23;;;;;;;21.55;19.25;;;;;;;;;;4892854;29;20088;-43
2021/06/08 10:18:51;;;;;;;20.63;18.42;;;;;;;;;;4892872;29;20052;-43
2021/06/08 10:21:32;;;;;;;21.83;19.70;;;;;;;;;;4895492;29;20052;-44
2021/06/08 10:24:04;;;;;;;20.77;18.67;;;;;;;;;;4893063;29;20057;-44
2021/06/08 10:26:34;;;;;;;19.30;17.40;;;;;;;;;;4893394;29;20051;-43
2021/06/08 10:29:05;;;;;;;23.65;18.88;;;;;;;;;;4889712;29;20108;-43
2021/06/08 10:31:33;;;;;;;20.27;18.17;;;;;;;;;;4895578;29;20415;-43
2021/06/08 10:34:00;;;;;;;18.92;16.92;;;;;;;;;;4895696;29;20059;-42
2021/06/08 10:36:30;;;;;;;18.70;16.80;;;;;;;;;;4892739;29;20055;-48
2021/06/08 10:38:57;;;;;;;20.00;18.05;;;;;;;;;;4892519;29;20131;-46
2021/06/08 10:41:25;;;;;;;18.70;16.80;;;;;;;;;;4894027;29;20053;-45
2021/06/08 10:43:52;;;;;;;17.88;16.05;;;;;;;;;;4893270;29;20510;-45
2021/06/08 10:46:23;;;;;;;17.77;14.05;;;;;;;;;;4895520;29;20507;-46
2021/06/08 10:48:51;;;;;;;17.05;15.27;;;;;;;;;;4892709;29;20060;-47
2021/06/08 10:51:20;;;;;;;15.48;13.88;;;;;;;;;;4893362;29;21439;-44
2021/06/08 10:53:49;;;;;;;13.70;12.35;;;;;;;;;;4895040;29;20518;-46
2021/06/08 10:56:26;;;;;;;12.55;9.93;;;;;;;;;;4892939;29;20072;-45
2021/06/08 10:58:55;;;;;;;18.60;16.75;;;;;;;;;;4893843;29;20148;-44
2021/06/08 11:01:31;;;;;;;17.02;15.32;;;;;;;;;;4889951;29;20104;-48
2021/06/08 11:04:00;;;;;;;19.05;14.60;;;;;;;;;;4895711;29;20095;-45
2021/06/08 11:06:47;;;;;;;17.40;15.80;;;;;;;;;;4891626;29;20075;-43
2021/06/08 11:09:15;;;;;;;16.67;14.77;;;;;;;;;;4895299;29;20053;-44
2021/06/08 11:11:51;;;;;;;14.98;13.45;;;;;;;;;;4895297;29;20136;-41
2021/06/08 11:14:37;;;;;;;12.65;9.90;;;;;;;;;;4890776;29;20214;-44
2021/06/08 11:17:05;;;;;;;9.57;8.65;;;;;;;;;;4894170;29;20104;-44
2021/06/08 11:19:44;;;;;;;11.23;7.65;;;;;;;;;;4896255;29;20063;-42
2021/06/08 11:22:12;;;;;;;8.00;6.95;;;;;;;;;;4899503;29;20060;-42
2021/06/08 11:24:40;;;;;;;8.38;7.45;;;;;;;;;;4899504;29;20057;-42
2021/06/08 11:27:08;;;;;;;7.32;6.63;;;;;;;;;;4890693;29;20045;-42
2021/06/08 11:29:56;;;;;;;7.82;6.80;;;;;;;;;;4898584;29;20108;-41
2021/06/08 11:32:29;;;;;;;14.90;13.40;;;;;;;;;;4898331;29;20526;-43
2021/06/08 11:35:18;;;;;;;11.90;10.80;;;;;;;;;;4896207;29;20049;-41
2021/06/08 11:37:50;;;;;;;11.23;9.02;;;;;;;;;;4889286;29;20641;-42
2021/06/08 11:40:36;;;;;;;8.70;7.80;;;;;;;;;;4899136;29;20063;-43
2021/06/08 11:43:09;;;;;;;10.63;7.35;;;;;;;;;;4898427;29;20565;-42
2021/06/08 11:45:46;;;;;;;11.50;9.13;;;;;;;;;;4897324;29;20058;-45
2021/06/08 11:48:28;;;;;;;9.00;7.85;;;;;;;;;;4888625;29;20073;-43
2021/06/08 11:50:55;;;;;;;9.20;8.30;;;;;;;;;;4898031;29;20503;-43
2021/06/08 11:53:21;;;;;;;9.07;8.10;;;;;;;;;;4897411;29;20104;-43
2021/06/08 11:56:08;;;;;;;10.85;6.63;;;;;;;;;;4898324;29;20480;-43
2021/06/08 11:58:38;;;;;;;6.97;6.30;;;;;;;;;;4898526;29;20091;-43
2021/06/08 12:01:06;;;;;;;8.85;6.68;;;;;;;;;;4899484;29;20057;-45
2021/06/08 12:03:34;;;;;;;7.15;6.55;;;;;;;;;;4898769;29;20087;-43
2021/06/08 12:06:02;;;;;;;13.35;7.60;;;;;;;;;;4892073;29;20061;-44
2021/06/08 12:08:33;;;;;;;9.00;7.55;;;;;;;;;;4898829;29;20124;-44
2021/06/08 12:11:12;;;;;;;11.32;6.90;;;;;;;;;;4883506;29;20076;-43
2021/06/08 12:13:42;;;;;;;8.65;6.03;;;;;;;;;;4898171;29;20108;-44
2021/06/08 12:16:15;;;;;;;7.43;6.63;;;;;;;;;;4898925;29;20431;-44
2021/06/08 12:18:42;;;;;;;7.50;6.20;;;;;;;;;;4886885;29;20052;-42
2021/06/08 12:21:10;;;;;;;9.45;7.32;;;;;;;;;;4895193;29;20144;-44
2021/06/08 12:23:37;;;;;;;7.75;6.00;;;;;;;;;;4898333;29;20057;-44
2021/06/08 12:26:08;;;;;;;6.93;6.32;;;;;;;;;;4896679;29;20061;-44
2021/06/08 12:28:35;;;;;;;7.95;7.20;;;;;;;;;;4894923;29;20307;-43
2021/06/08 12:31:11;;;;;;;12.38;8.02;;;;;;;;;;4898308;29;20435;-44
2021/06/08 12:33:38;;;;;;;10.10;8.02;;;;;;;;;;4899120;29;20056;-45
2021/06/08 12:36:06;;;;;;;8.05;7.28;;;;;;;;;;4901031;29;20135;-43
2021/06/08 12:38:33;;;;;;;7.68;6.97;;;;;;;;;;4901911;29;20124;-45
2021/06/08 12:41:02;;;;;;;8.05;7.25;;;;;;;;;;4892236;29;20048;-43
2021/06/08 12:43:39;;;;;;;8.40;6.90;;;;;;;;;;4890127;29;20068;-42
2021/06/08 12:46:06;;;;;;;8.02;7.22;;;;;;;;;;4897523;29;20057;-50
2021/06/08 12:48:33;;;;;;;8.57;7.07;;;;;;;;;;4892088;29;20052;-44
2021/06/08 12:51:00;;;;;;;8.18;7.38;;;;;;;;;;4895996;29;20084;-43
2021/06/08 12:53:27;;;;;;;8.55;7.15;;;;;;;;;;4898392;29;20053;-45
2021/06/08 12:55:55;;;;;;;9.10;6.68;;;;;;;;;;4896314;29;20419;-44
2021/06/08 12:58:33;;;;;;;9.25;6.60;;;;;;;;;;4895378;29;20049;-44
2021/06/08 13:01:08;;;;;;;7.47;6.78;;;;;;;;;;4895636;29;20056;-42
2021/06/08 13:03:36;;;;;;;7.28;6.57;;;;;;;;;;4901155;29;20537;-44
2021/06/08 13:06:03;;;;;;;7.20;6.50;;;;;;;;;;4894349;29;20153;-44
2021/06/08 13:08:33;;;;;;;7.10;6.40;;;;;;;;;;4895811;29;20052;-44
2021/06/08 13:11:00;;;;;;;6.30;5.70;;;;;;;;;;4891166;29;20044;-44
2021/06/08 13:13:31;;;;;;;7.95;5.40;;;;;;;;;;4897047;29;20052;-44
2021/06/08 13:15:58;;;;;;;6.82;5.65;;;;;;;;;;4889819;29;20117;-45
2021/06/08 13:18:26;;;;;;;7.00;5.18;;;;;;;;;;4889613;29;20507;-45
2021/06/08 13:20:54;;;;;;;6.65;5.72;;;;;;;;;;4892624;29;20060;-44
2021/06/08 13:23:21;;;;;;;7.90;6.20;;;;;;;;;;4895967;29;20100;-42
2021/06/08 13:25:54;;;;;;;6.25;5.45;;;;;;;;;;4894375;29;20065;-41
2021/06/08 13:28:32;;;;;;;5.65;5.13;;;;;;;;;;4897612;29;20059;-44
2021/06/08 13:31:12;;;;;;;7.35;5.57;;;;;;;;;;4895857;29;20045;-46
2021/06/08 13:33:40;;;;;;;7.43;5.70;;;;;;;;;;4889068;29;20095;-42
2021/06/08 13:36:09;;;;;;;6.97;6.25;;;;;;;;;;4895022;29;20104;-43
2021/06/08 13:38:36;;;;;;;8.15;7.07;;;;;;;;;;4893322;29;20048;-44
2021/06/08 13:41:03;;;;;;;7.75;6.38;;;;;;;;;;4896443;29;20064;-42
2021/06/08 13:43:44;;;;;;;6.65;5.97;;;;;;;;;;4893157;29;20053;-42
2021/06/08 13:46:15;;;;;;;7.22;6.47;;;;;;;;;;4891740;29;20511;-43
2021/06/08 13:48:52;;;;;;;6.38;5.78;;;;;;;;;;4894085;29;20187;-42
2021/06/08 13:51:26;;;;;;;7.53;5.68;;;;;;;;;;4896213;29;20056;-42
2021/06/08 13:54:13;;;;;;;6.95;5.28;;;;;;;;;;4893868;29;20514;-43
2021/06/08 13:56:48;;;;;;;8.98;5.25;;;;;;;;;;4895272;29;20053;-47
2021/06/08 14:02:08;;;;;;;5.38;3.95;;;;;;;;;;4889513;29;20445;-44
2021/06/08 14:04:41;;;;;;;9.15;4.68;;;;;;;;;;4895271;29;20064;-42
2021/06/08 14:07:08;;;;;;;6.45;4.70;;;;;;;;;;4895532;29;20048;-43
2021/06/08 14:09:39;;;;;;;5.03;4.53;;;;;;;;;;4895031;29;20049;-42
2021/06/08 14:12:06;;;;;;;5.00;4.40;;;;;;;;;;4896463;29;20056;-43
2021/06/08 14:14:34;;;;;;;6.82;4.30;;;;;;;;;;4896390;29;20123;-43
2021/06/08 14:17:06;;;;;;;5.53;4.35;;;;;;;;;;4893634;29;20048;-44
2021/06/08 14:19:33;;;;;;;5.40;4.45;;;;;;;;;;4894633;29;20136;-43
2021/06/08 14:22:00;;;;;;;6.25;4.35;;;;;;;;;;4893283;29;20044;-44
2021/06/08 14:24:27;;;;;;;5.90;3.95;;;;;;;;;;4895759;29;20108;-45
2021/06/08 14:26:54;;;;;;;5.35;4.03;;;;;;;;;;4883116;29;20451;-45
2021/06/08 14:29:22;;;;;;;5.35;3.90;;;;;;;;;;4896112;29;20120;-45
2021/06/08 14:31:49;;;;;;;5.75;4.10;;;;;;;;;;4894221;29;20052;-43
2021/06/08 14:34:16;;;;;;;8.57;4.53;;;;;;;;;;4888017;29;20094;-43
2021/06/08 14:36:43;;;;;;;6.13;4.20;;;;;;;;;;4891374;29;20103;-43
2021/06/08 14:39:09;;;;;;;4.38;3.53;;;;;;;;;;4891815;29;20061;-45
2021/06/08 14:41:36;;;;;;;5.85;3.55;;;;;;;;;;4893995;29;20506;-44
2021/06/08 14:44:03;;;;;;;5.65;3.97;;;;;;;;;;4894970;29;20052;-46
2021/06/08 14:46:37;;;;;;;5.38;4.07;;;;;;;;;;4895116;29;20194;-46
2021/06/08 14:49:04;;;;;;;3.95;3.55;;;;;;;;;;4894440;29;20076;-44
2021/06/08 14:51:31;;;;;;;5.28;3.92;;;;;;;;;;4895596;29;20059;-44